Time;durP1;ratioP1;P1;durP2;ratioP2;P2;SDS_P1;SDS_P2;PMS_P1;PMS_P2;Temp;Humidity;BMP_temperature;BMP_pressure;BME280_temperature;BME280_humidity;BME280_pressure;Samples;Min_cycle;Max_cycle;Signal;HPM_P1;HPM_P2
2022/01/24 00:02:14;;;;;;;16.05;9.10;;;;;;;-5.42;72.66;93875.63;5060855;28;20448;-40
2022/01/24 00:04:40;;;;;;;17.58;9.13;;;;;;;-5.23;71.77;93889.94;5059165;28;20025;-40
2022/01/24 00:07:06;;;;;;;16.92;8.88;;;;;;;-5.28;71.46;93901.25;5059439;28;20016;-39
2022/01/24 00:09:32;;;;;;;17.15;9.38;;;;;;;-5.37;72.43;93899.25;5060656;28;20025;-38
2022/01/24 00:12:00;;;;;;;15.70;8.20;;;;;;;-5.34;72.38;93897.63;5058656;28;20096;-38
2022/01/24 00:17:05;;;;;;;21.08;9.48;;;;;;;-5.33;72.81;93895.69;5060697;28;20107;-38
2022/01/24 00:27:43;;;;;;;11.57;7.03;;;;;;;-5.00;73.14;93908.34;5059413;28;20090;-38
2022/01/24 00:30:09;;;;;;;11.40;6.47;;;;;;;-5.03;72.98;93909.25;5059135;28;20044;-38
2022/01/24 00:32:35;;;;;;;11.25;7.43;;;;;;;-5.09;72.77;93902.91;5054529;28;20025;-38
2022/01/24 00:35:00;;;;;;;10.65;6.80;;;;;;;-5.02;72.43;93899.22;5069452;28;20060;-38
2022/01/24 00:37:30;;;;;;;13.77;7.28;;;;;;;-5.02;72.96;93905.34;5069767;28;20023;-39
2022/01/24 00:39:56;;;;;;;12.45;6.90;;;;;;;-5.03;72.22;93909.25;5069634;28;20566;-38
2022/01/24 00:45:27;;;;;;;11.32;8.65;;;;;;;-5.03;72.30;93911.94;5069938;28;20586;-39
2022/01/24 00:53:18;;;;;;;20.95;10.43;;;;;;;-5.22;72.95;93915.69;5069862;28;20090;-38
2022/01/24 00:55:49;;;;;;;23.23;12.15;;;;;;;-5.08;72.68;93919.81;5070006;28;20078;-38
2022/01/24 00:58:15;;;;;;;19.17;10.38;;;;;;;-5.17;73.46;93914.34;5069519;28;20028;-39
2022/01/24 01:00:40;;;;;;;30.52;12.38;;;;;;;-5.34;72.57;93897.63;5069767;28;20040;-38
2022/01/24 01:03:06;;;;;;;21.70;11.00;;;;;;;-5.08;72.69;93930.59;5069417;28;20421;-39
2022/01/24 01:06:32;;;;;;;12.52;7.80;;;;;;;-5.06;72.78;93934.34;5069532;28;20025;-37
2022/01/24 01:19:22;;;;;;;11.70;6.47;;;;;;;-4.91;72.55;93918.44;5073070;28;20567;-38
2022/01/24 01:21:47;;;;;;;10.90;6.30;;;;;;;-4.96;72.74;93916.34;5073237;28;20017;-38
2022/01/24 01:24:14;;;;;;;16.52;7.95;;;;;;;-4.92;72.33;93916.97;5073205;28;20027;-38
2022/01/24 01:26:46;;;;;;;13.95;6.75;;;;;;;-4.86;72.74;93915.94;5072898;28;20024;-39
2022/01/24 01:29:18;;;;;;;10.13;5.97;;;;;;;-4.83;72.69;93920.44;5072852;28;20016;-39
2022/01/24 01:55:38;;;;;;;13.00;7.00;;;;;;;-5.27;73.16;93921.63;5072719;28;20505;-37
2022/01/24 01:58:12;;;;;;;12.10;6.40;;;;;;;-5.27;72.82;93918.94;5072182;28;20020;-38
2022/01/24 02:00:40;;;;;;;10.35;5.75;;;;;;;-5.25;73.61;93924.63;5072576;28;20444;-38
2022/01/24 02:03:06;;;;;;;7.80;5.55;;;;;;;-5.55;74.70;93930.63;5072105;28;20021;-39
2022/01/24 02:05:32;;;;;;;13.32;5.68;;;;;;;-5.71;75.06;93931.53;5072462;28;20082;-38
2022/01/24 02:07:57;;;;;;;8.38;4.78;;;;;;;-5.72;75.82;93930.03;5072404;28;20031;-38
2022/01/24 02:10:24;;;;;;;14.35;7.63;;;;;;;-5.66;76.24;93924.84;5065693;28;20461;-38
2022/01/24 02:12:51;;;;;;;10.00;5.90;;;;;;;-5.50;75.63;93932.78;5051813;28;20517;-38
2022/01/24 02:15:32;;;;;;;9.75;6.15;;;;;;;-5.44;74.93;93928.34;5052141;28;20032;-38
2022/01/24 02:25:53;;;;;;;9.90;4.88;;;;;;;-5.68;70.98;93935.28;5051809;28;20025;-38
2022/01/24 02:28:21;;;;;;;19.92;9.05;;;;;;;-5.76;70.77;93944.78;5051595;28;20020;-38
2022/01/24 02:33:14;;;;;;;12.10;5.47;;;;;;;-5.92;69.92;93948.34;5061422;28;20028;-39
2022/01/24 02:35:39;;;;;;;31.85;14.32;;;;;;;-5.79;71.08;93957.13;5071358;28;20522;-38
2022/01/24 02:38:14;;;;;;;6.80;3.65;;;;;;;-5.68;71.01;93954.88;5071657;28;20054;-38
2022/01/24 02:40:40;;;;;;;11.25;5.90;;;;;;;-5.59;70.26;93948.81;5071665;28;20029;-38
2022/01/24 02:48:33;;;;;;;50.80;16.40;;;;;;;-5.77;69.69;93956.69;5060116;28;20028;-39
2022/01/24 02:53:32;;;;;;;11.40;5.47;;;;;;;-5.56;70.13;93972.16;5061797;28;20025;-38
2022/01/24 02:55:58;;;;;;;6.90;4.45;;;;;;;-5.82;69.77;93949.16;5060784;28;20418;-38
2022/01/24 02:58:23;;;;;;;11.70;5.75;;;;;;;-5.66;70.59;93970.56;5059974;28;20029;-37
2022/01/24 03:00:50;;;;;;;24.60;10.27;;;;;;;-5.51;69.26;93979.69;5061372;28;20055;-38
2022/01/24 03:03:16;;;;;;;9.70;6.03;;;;;;;-5.40;68.53;93980.09;5063523;28;20485;-38
2022/01/24 03:05:42;;;;;;;6.65;4.43;;;;;;;-5.47;68.59;93967.63;5075827;28;20092;-37
2022/01/24 03:08:08;;;;;;;18.02;8.27;;;;;;;-5.29;69.19;93977.81;5072202;28;20040;-38
2022/01/24 03:10:42;;;;;;;9.88;5.63;;;;;;;-5.46;68.73;93982.56;5070882;28;20067;-38
2022/01/24 03:15:50;;;;;;;8.70;5.70;;;;;;;-5.44;67.82;93988.28;5070860;28;20029;-38
2022/01/24 03:18:16;;;;;;;12.88;7.00;;;;;;;-5.55;67.26;93990.56;5070630;28;20036;-38
2022/01/24 03:20:43;;;;;;;13.77;7.72;;;;;;;-5.58;66.30;93986.03;5070480;28;20425;-38
2022/01/24 03:23:10;;;;;;;10.35;5.50;;;;;;;-5.61;66.50;93981.50;5070037;28;20052;-38
2022/01/24 03:25:36;;;;;;;10.10;5.97;;;;;;;-5.71;67.13;93998.75;5070579;28;20502;-38
2022/01/24 03:28:03;;;;;;;12.23;6.78;;;;;;;-5.84;68.27;93970.38;5070504;28;20038;-38
2022/01/24 03:30:30;;;;;;;9.95;5.32;;;;;;;-5.68;67.77;94002.53;5070787;28;20105;-39
2022/01/24 03:32:56;;;;;;;8.52;4.07;;;;;;;-5.62;66.24;94000.78;5061495;28;20472;-38
2022/01/24 03:35:21;;;;;;;8.82;3.83;;;;;;;-5.92;66.34;94002.13;5049219;28;20076;-38
2022/01/24 03:37:47;;;;;;;5.22;3.03;;;;;;;-6.33;67.05;93986.84;5050703;28;20538;-38
2022/01/24 03:40:13;;;;;;;5.53;3.60;;;;;;;-6.07;67.96;94002.97;5050322;28;20469;-38
2022/01/24 03:42:38;;;;;;;5.75;3.83;;;;;;;-6.08;67.69;94006.81;5050594;28;20032;-37
2022/01/24 03:45:08;;;;;;;13.55;8.68;;;;;;;-5.90;67.72;94007.81;5050522;28;20036;-37
2022/01/24 03:50:16;;;;;;;6.85;4.43;;;;;;;-5.90;67.02;94009.75;5050234;28;20025;-37
2022/01/24 03:52:45;;;;;;;24.80;12.88;;;;;;;-5.92;66.79;94012.88;5050143;28;20033;-36
2022/01/24 03:55:11;;;;;;;;;;;;;;;-6.01;66.89;94018.13;5050638;28;20028;-37
2022/01/24 03:57:36;;;;;;;35.60;16.33;;;;;;;-6.18;67.12;94014.78;5050440;28;19916;-37
2022/01/24 04:00:05;;;;;;;6.80;4.15;;;;;;;-6.27;66.23;94011.22;5049959;28;20115;-38
2022/01/24 04:02:30;;;;;;;6.53;4.65;;;;;;;-6.28;66.66;94015.84;5053284;28;20028;-37
2022/01/24 04:04:56;;;;;;;11.68;5.35;;;;;;;-6.32;66.88;94019.81;5069988;28;20589;-37
2022/01/24 04:07:22;;;;;;;7.45;4.88;;;;;;;-6.27;66.49;94014.66;5070018;28;20107;-37
2022/01/24 04:09:48;;;;;;;7.93;4.45;;;;;;;-6.55;66.22;93991.28;5070060;28;20027;-37
2022/01/24 04:12:14;;;;;;;7.50;4.80;;;;;;;-6.54;66.10;94010.84;5070001;28;20040;-37
2022/01/24 04:14:54;;;;;;;6.03;3.65;;;;;;;-6.51;65.48;94018.81;5070028;28;20083;-37
2022/01/24 04:17:23;;;;;;;10.30;4.80;;;;;;;-6.68;66.09;94025.41;5069995;28;20036;-37
2022/01/24 04:22:30;;;;;;;6.70;4.05;;;;;;;-6.69;65.96;94023.88;5070286;28;20111;-38
2022/01/24 04:25:01;;;;;;;;;;;;;;;-6.83;65.80;94020.84;5070784;28;20043;-37
2022/01/24 04:27:28;;;;;;;5.72;3.90;;;;;;;-6.86;65.24;94029.75;5069935;28;19908;-37
2022/01/24 04:29:54;;;;;;;6.32;4.45;;;;;;;-7.02;65.41;94027.84;5069846;28;20025;-38
2022/01/24 04:32:20;;;;;;;7.68;4.97;;;;;;;-6.99;65.09;94032.38;5067248;28;20039;-38
2022/01/24 04:34:46;;;;;;;8.80;5.05;;;;;;;-7.16;64.72;94028.97;5049650;28;20049;-38
2022/01/24 04:37:11;;;;;;;4.70;3.10;;;;;;;-7.20;65.48;94032.91;5049698;28;20032;-38
2022/01/24 04:39:37;;;;;;;5.68;3.90;;;;;;;-7.23;65.48;94031.06;5049685;28;20036;-37
2022/01/24 04:42:09;;;;;;;8.65;4.45;;;;;;;-7.27;65.87;94031.16;5049908;28;20032;-38
2022/01/24 04:47:32;;;;;;;4.85;3.22;;;;;;;-7.53;66.63;94009.97;5053869;28;20029;-38
2022/01/24 04:53:02;;;;;;;5.78;2.85;;;;;;;-7.40;67.95;94029.56;5053807;28;20130;-38
2022/01/24 04:55:27;;;;;;;15.52;7.82;;;;;;;-7.34;68.05;94058.13;5053445;28;20100;-38
2022/01/24 04:57:53;;;;;;;10.00;3.60;;;;;;;-7.19;67.88;94059.31;5053730;28;20052;-38
2022/01/24 05:00:18;;;;;;;12.00;3.85;;;;;;;-7.03;67.27;94066.59;5054591;28;20033;-38
2022/01/24 05:02:44;;;;;;;6.05;4.15;;;;;;;-7.01;67.24;94072.28;5053600;28;20017;-39
2022/01/24 05:05:14;;;;;;;7.15;4.20;;;;;;;-7.03;67.06;94075.41;5053552;28;20414;-38
2022/01/24 05:07:39;;;;;;;7.50;4.80;;;;;;;-6.97;68.21;94075.63;5053538;28;20032;-38
2022/01/24 05:10:23;;;;;;;4.72;2.65;;;;;;;-6.95;66.73;94076.72;5052425;28;20021;-38
2022/01/24 05:26:00;;;;;;;14.40;4.30;;;;;;;-7.05;68.43;94109.19;5053193;28;20492;-38
2022/01/24 05:28:26;;;;;;;;;;;;;;;-7.05;66.96;94106.50;5053433;28;20107;-38
2022/01/24 05:30:51;;;;;;;7.93;4.45;;;;;;;-7.03;68.02;94102.22;5052995;28;19951;-38
2022/01/24 05:33:17;;;;;;;13.02;7.07;;;;;;;-6.99;67.87;94104.81;5062941;28;20537;-38
2022/01/24 05:35:43;;;;;;;10.95;5.20;;;;;;;-7.09;66.29;94105.84;5072617;28;20040;-39
2022/01/24 05:38:10;;;;;;;5.75;3.45;;;;;;;-6.99;66.55;94102.91;5072544;28;20235;-37
2022/01/24 05:40:36;;;;;;;5.65;4.05;;;;;;;-7.09;66.59;94085.13;5072598;28;20032;-38
2022/01/24 05:43:01;;;;;;;7.75;4.28;;;;;;;-6.91;66.30;94118.84;5072391;28;20024;-37
2022/01/24 05:45:27;;;;;;;6.90;4.70;;;;;;;-6.76;65.88;94120.75;5072866;28;20091;-37
2022/01/24 05:47:53;;;;;;;18.02;9.85;;;;;;;-6.75;66.95;94124.94;5072534;28;20447;-37
2022/01/24 05:50:18;;;;;;;7.80;4.80;;;;;;;-6.80;65.93;94089.81;5072507;28;20024;-38
2022/01/24 05:52:44;;;;;;;13.35;6.57;;;;;;;-6.56;66.85;94129.44;5072645;28;20021;-39
2022/01/24 05:55:09;;;;;;;12.52;6.57;;;;;;;-6.48;65.39;94133.47;5067843;28;20215;-37
2022/01/24 05:57:36;;;;;;;9.63;5.70;;;;;;;-6.59;65.37;94119.53;5052277;28;20032;-38
2022/01/24 06:00:07;;;;;;;12.55;6.72;;;;;;;-6.50;65.18;94129.69;5052085;28;20453;-38
2022/01/24 06:02:32;;;;;;;16.73;8.73;;;;;;;-6.46;66.25;94133.78;5052180;28;20025;-37
2022/01/24 06:04:58;;;;;;;37.25;15.77;;;;;;;-6.47;66.00;94145.69;5052083;28;20071;-38
2022/01/24 06:07:23;;;;;;;17.30;8.13;;;;;;;-6.27;63.82;94156.31;5051607;28;20021;-38
2022/01/24 06:09:49;;;;;;;13.77;7.25;;;;;;;-6.31;64.61;94155.66;5049916;28;20096;-39
2022/01/24 06:12:15;;;;;;;15.27;8.60;;;;;;;-6.48;64.84;94164.94;5048893;28;20021;-38
2022/01/24 06:14:40;;;;;;;10.60;6.90;;;;;;;-6.53;66.14;94168.88;5049776;28;20043;-37
2022/01/24 06:17:06;;;;;;;12.25;7.20;;;;;;;-6.56;66.21;94160.91;5050019;28;20024;-37
2022/01/24 06:19:31;;;;;;;9.40;6.30;;;;;;;-6.44;65.45;94173.66;5049862;28;20938;-36
2022/01/24 06:21:57;;;;;;;8.52;3.85;;;;;;;-6.39;63.24;94181.94;5050427;28;20109;-38
2022/01/24 06:24:22;;;;;;;10.43;4.90;;;;;;;-6.18;64.53;94178.72;5050226;28;20029;-37
2022/01/24 06:26:48;;;;;;;11.07;5.13;;;;;;;-6.03;63.71;94172.94;5066595;28;20025;-38
2022/01/24 06:29:13;;;;;;;18.90;8.60;;;;;;;-6.23;65.63;94170.41;5083486;28;20095;-37
2022/01/24 06:31:39;;;;;;;10.20;5.90;;;;;;;-6.11;66.58;94177.78;5085845;28;20028;-37
2022/01/24 06:34:05;;;;;;;7.18;4.82;;;;;;;-5.90;66.38;94176.44;5074153;28;20147;-37
2022/01/24 06:36:32;;;;;;;14.95;7.93;;;;;;;-6.25;63.75;94164.69;5079685;28;20032;-37
2022/01/24 06:38:59;;;;;;;9.50;5.55;;;;;;;-6.00;63.50;94185.56;5069563;28;20059;-36
2022/01/24 06:41:30;;;;;;;10.20;5.10;;;;;;;-5.87;64.51;94194.41;5069322;28;20033;-38
2022/01/24 06:43:55;;;;;;;63.78;28.95;;;;;;;-5.87;64.98;94195.19;5086466;28;20031;-38
2022/01/24 06:46:21;;;;;;;32.63;14.15;;;;;;;-5.83;64.81;94201.19;5070682;28;20033;-38
2022/01/24 06:48:46;;;;;;;45.10;13.88;;;;;;;-5.74;65.47;94198.59;5069675;28;20024;-38
2022/01/24 06:51:12;;;;;;;24.35;13.20;;;;;;;-5.53;64.50;94199.97;5069689;28;20063;-39
2022/01/24 06:53:39;;;;;;;13.32;7.93;;;;;;;-5.52;63.36;94204.91;5069219;28;20501;-39
2022/01/24 06:56:08;;;;;;;16.77;9.30;;;;;;;-5.68;64.94;94213.06;5069125;28;20074;-38
2022/01/24 06:58:35;;;;;;;27.67;12.52;;;;;;;-5.55;64.67;94205.00;5068829;28;20075;-38
2022/01/24 07:01:00;;;;;;;17.13;8.35;;;;;;;-5.37;62.88;94206.00;5069052;28;20043;-38
2022/01/24 07:03:26;;;;;;;21.77;10.40;;;;;;;-5.29;63.30;94222.72;5068919;28;20032;-38
2022/01/24 07:05:52;;;;;;;13.20;7.85;;;;;;;-5.30;64.19;94223.13;5069100;28;20024;-38
2022/01/24 07:08:17;;;;;;;16.23;10.05;;;;;;;-5.20;63.81;94211.31;5068407;28;20024;-37
2022/01/24 07:10:43;;;;;;;10.20;6.13;;;;;;;-5.40;62.27;94214.19;5069184;28;20036;-38
2022/01/24 07:13:08;;;;;;;12.43;5.50;;;;;;;-5.58;62.58;94227.38;5068223;28;20020;-36
2022/01/24 07:15:40;;;;;;;13.57;6.45;;;;;;;-5.37;64.65;94232.16;5076407;28;20032;-35
2022/01/24 07:20:35;;;;;;;11.77;7.22;;;;;;;-5.03;65.27;94240.41;5070891;28;20035;-36
2022/01/24 07:23:02;;;;;;;9.70;6.03;;;;;;;-4.86;66.46;94241.06;5068356;28;20024;-36
2022/01/24 07:25:27;;;;;;;13.50;7.90;;;;;;;-4.95;65.42;94222.84;5068637;28;20048;-35
2022/01/24 07:27:53;;;;;;;16.30;9.57;;;;;;;-4.75;65.45;94239.56;5068330;28;20025;-35
2022/01/24 07:30:19;;;;;;;10.82;7.20;;;;;;;-4.71;64.98;94247.50;5070435;28;20016;-35
2022/01/24 07:32:44;;;;;;;9.45;5.22;;;;;;;-4.47;64.53;94251.38;5070087;28;20016;-35
2022/01/24 07:35:10;;;;;;;10.55;7.03;;;;;;;-4.53;62.74;94241.59;5070398;28;20052;-35
2022/01/24 07:37:35;;;;;;;13.68;6.10;;;;;;;-4.40;63.88;94248.47;5070747;28;20028;-35
2022/01/24 07:40:02;;;;;;;7.63;5.15;;;;;;;-4.44;61.33;94263.25;5070316;28;20459;-36
2022/01/24 07:42:40;;;;;;;9.77;5.80;;;;;;;-4.32;60.91;94265.16;5070381;28;20025;-35
2022/01/24 07:45:06;;;;;;;14.77;9.80;;;;;;;-4.33;61.52;94255.56;5070642;28;20033;-36
2022/01/24 07:47:31;;;;;;;33.03;19.13;;;;;;;-4.34;61.68;94260.22;5067082;28;20418;-35
2022/01/24 07:49:57;;;;;;;11.45;6.95;;;;;;;-4.32;60.16;94267.84;5050557;28;20024;-36
2022/01/24 07:52:22;;;;;;;10.00;6.30;;;;;;;-4.35;58.94;94274.84;5050225;28;20021;-36
2022/01/24 07:54:48;;;;;;;13.98;7.90;;;;;;;-4.32;59.52;94265.16;5050153;28;20029;-36
2022/01/24 07:57:13;;;;;;;11.93;6.93;;;;;;;-4.15;59.88;94280.00;5050398;28;20028;-36
2022/01/24 07:59:39;;;;;;;14.02;7.35;;;;;;;-4.09;60.16;94281.72;5050046;28;20483;-35
2022/01/24 08:02:04;;;;;;;9.07;5.53;;;;;;;-4.20;59.49;94280.56;5050023;28;20017;-36
2022/01/24 08:04:30;;;;;;;15.57;9.60;;;;;;;-4.12;58.15;94282.59;5050408;28;20429;-36
2022/01/24 08:06:55;;;;;;;12.98;8.13;;;;;;;-4.17;57.32;94288.53;5050239;28;20032;-35
2022/01/24 08:09:21;;;;;;;11.60;7.53;;;;;;;-4.02;59.26;94302.31;5050057;28;20513;-36
2022/01/24 08:11:46;;;;;;;13.48;7.65;;;;;;;-3.91;56.18;94294.63;5050054;28;20021;-35
2022/01/24 08:14:12;;;;;;;18.45;10.32;;;;;;;-3.92;57.48;94296.56;5049895;28;20025;-36
2022/01/24 08:16:39;;;;;;;10.32;6.95;;;;;;;-4.01;56.35;94298.44;5050091;28;20100;-36
2022/01/24 08:19:04;;;;;;;9.63;6.35;;;;;;;-4.01;57.05;94298.44;5049967;28;20032;-35
2022/01/24 08:21:30;;;;;;;11.55;5.93;;;;;;;-3.98;56.42;94305.66;5054453;28;20028;-36
2022/01/24 08:23:56;;;;;;;9.50;5.10;;;;;;;-3.88;56.89;94309.97;5054060;28;20526;-36
2022/01/24 08:26:21;;;;;;;8.70;5.28;;;;;;;-4.04;56.38;94304.69;5054274;28;20013;-36
2022/01/24 08:28:47;;;;;;;14.80;7.97;;;;;;;-4.33;57.34;94317.56;5053942;28;20502;-39
2022/01/24 08:31:13;;;;;;;10.48;6.78;;;;;;;-3.91;58.48;94321.59;5054149;28;20032;-35
2022/01/24 08:33:38;;;;;;;11.48;7.97;;;;;;;-3.87;58.17;94319.53;5053622;28;20028;-37
2022/01/24 08:36:04;;;;;;;14.32;9.15;;;;;;;-3.39;58.25;94313.69;5053627;28;20140;-37
2022/01/24 08:38:34;;;;;;;18.15;8.82;;;;;;;-3.13;56.95;94315.06;5074980;28;20016;-39
2022/01/24 08:41:05;;;;;;;12.48;6.93;;;;;;;-3.09;52.48;94317.66;5073717;28;20063;-39
2022/01/24 08:46:25;;;;;;;13.25;7.22;;;;;;;-2.82;52.65;94323.25;5064482;28;20032;-40
2022/01/24 08:48:51;;;;;;;10.77;6.70;;;;;;;-2.85;52.21;94326.81;5073574;28;20024;-39
2022/01/24 08:51:17;;;;;;;8.77;6.03;;;;;;;-2.95;51.52;94330.66;5073617;28;20420;-40
2022/01/24 08:53:42;;;;;;;9.77;5.78;;;;;;;-2.67;52.43;94315.34;5072678;28;20116;-40
2022/01/24 08:56:10;;;;;;;6.97;4.60;;;;;;;-2.67;50.70;94318.06;5073534;28;20576;-40
2022/01/24 08:58:36;;;;;;;8.38;5.18;;;;;;;-2.68;51.03;94327.34;5073445;28;20021;-41
2022/01/24 09:01:02;;;;;;;9.02;6.32;;;;;;;-2.13;52.59;94334.53;5073244;28;20067;-41
2022/01/24 09:03:29;;;;;;;12.95;7.03;;;;;;;-1.98;51.40;94319.25;5073715;28;20024;-37
2022/01/24 09:05:57;;;;;;;14.73;6.65;;;;;;;-1.99;52.08;94341.34;5072059;28;20020;-37
2022/01/24 09:08:23;;;;;;;14.70;8.63;;;;;;;-2.48;52.28;94331.22;5073277;28;20608;-37
2022/01/24 09:10:50;;;;;;;12.38;6.55;;;;;;;-1.95;53.37;94329.16;5073230;28;20025;-37
2022/01/24 09:13:16;;;;;;;13.98;7.03;;;;;;;-1.67;50.86;94328.00;5073405;28;20032;-37
2022/01/24 09:15:42;;;;;;;15.70;7.13;;;;;;;-1.45;50.58;94329.88;5073201;28;20024;-37
2022/01/24 09:18:08;;;;;;;12.55;7.90;;;;;;;-0.88;49.96;94334.38;5073089;28;20055;-38
2022/01/24 09:20:34;;;;;;;13.95;7.63;;;;;;;-0.57;49.20;94329.50;5073056;28;20397;-37
2022/01/24 09:23:01;;;;;;;9.38;6.75;;;;;;;-0.57;50.12;94331.47;5072899;28;20028;-37
2022/01/24 09:25:26;;;;;;;10.52;6.68;;;;;;;-0.40;50.07;94327.19;5073043;28;20503;-37
2022/01/24 09:27:52;;;;;;;11.65;6.43;;;;;;;-0.19;48.97;94324.25;5073220;28;20094;-39
2022/01/24 09:30:22;;;;;;;13.20;7.85;;;;;;;-0.13;46.21;94322.44;5062732;28;20520;-40
2022/01/24 09:32:48;;;;;;;10.65;7.28;;;;;;;-0.43;47.44;94315.28;5060909;28;20079;-41
2022/01/24 09:35:14;;;;;;;21.38;14.35;;;;;;;-0.66;45.93;94315.97;5063063;28;20426;-40
2022/01/24 09:37:41;;;;;;;19.65;12.88;;;;;;;-0.75;47.90;94324.13;5060559;28;20044;-40
2022/01/24 09:40:08;;;;;;;13.35;9.18;;;;;;;-0.34;47.81;94311.81;5060165;28;20078;-41
2022/01/24 09:42:34;;;;;;;21.88;12.52;;;;;;;-0.12;46.73;94321.22;5060978;28;20063;-41
2022/01/24 09:44:59;;;;;;;12.02;8.43;;;;;;;1.09;46.39;94310.63;5062457;28;20021;-41
2022/01/24 09:47:25;;;;;;;9.18;6.50;;;;;;;2.13;44.25;94314.34;5060725;28;20750;-42
2022/01/24 09:49:51;;;;;;;14.35;8.85;;;;;;;2.72;42.70;94306.75;5061085;28;20493;-41
2022/01/24 09:52:17;;;;;;;13.55;8.50;;;;;;;3.02;41.03;94302.63;5061280;28;20028;-42
2022/01/24 09:54:43;;;;;;;10.40;7.00;;;;;;;2.99;39.49;94316.47;5066727;28;20020;-41
2022/01/24 09:57:09;;;;;;;10.48;6.95;;;;;;;2.22;38.30;94319.69;5060676;28;20127;-40
2022/01/24 09:59:34;;;;;;;5.45;4.68;;;;;;;1.44;39.08;94319.69;5052370;28;20025;-40
2022/01/24 10:02:00;;;;;;;9.48;6.60;;;;;;;1.13;42.03;94327.50;5057646;28;20549;-40
2022/01/24 10:04:26;;;;;;;11.15;6.32;;;;;;;0.94;40.17;94326.16;5059323;28;20021;-40
2022/01/24 10:07:12;;;;;;;9.85;6.43;;;;;;;0.99;42.43;94317.38;5060000;28;20027;-41
2022/01/24 10:09:44;;;;;;;10.68;6.68;;;;;;;-0.15;43.87;94322.13;5060449;28;20103;-40
2022/01/24 10:17:34;;;;;;;13.23;7.03;;;;;;;-0.35;46.18;94323.88;5057090;28;20028;-39
2022/01/24 10:20:15;;;;;;;8.10;5.38;;;;;;;0.53;44.38;94314.25;5058457;28;20009;-40
2022/01/24 10:22:41;;;;;;;8.20;6.50;;;;;;;0.97;43.20;94309.69;5057391;28;20087;-40
2022/01/24 10:25:09;;;;;;;14.90;11.27;;;;;;;2.24;41.89;94308.31;5057464;28;20083;-40
2022/01/24 10:27:35;;;;;;;12.07;6.47;;;;;;;2.83;38.11;94304.16;5063237;28;20120;-41
2022/01/24 10:30:10;;;;;;;8.43;5.88;;;;;;;3.19;38.69;94308.25;5058193;28;20119;-42
2022/01/24 10:32:48;;;;;;;18.80;9.50;;;;;;;2.50;37.82;94325.53;5061598;28;20035;-40
2022/01/24 10:35:38;;;;;;;9.35;5.75;;;;;;;1.62;39.12;94313.31;5058578;28;20094;-41
2022/01/24 10:43:38;;;;;;;10.70;5.88;;;;;;;-1.19;43.37;94306.72;5062368;28;20029;-38
2022/01/24 10:46:05;;;;;;;10.00;5.78;;;;;;;-1.57;44.59;94320.69;5058889;28;20548;-39
2022/01/24 10:48:36;;;;;;;11.85;7.20;;;;;;;-2.24;44.32;94306.38;5051349;28;20032;-39
2022/01/24 10:51:20;;;;;;;5.57;4.30;;;;;;;-2.38;44.96;94304.97;5061279;28;20025;-39
2022/01/24 10:53:56;;;;;;;9.18;4.13;;;;;;;-2.15;46.48;94306.41;5051958;28;20032;-38
2022/01/24 10:56:27;;;;;;;9.57;5.15;;;;;;;-1.93;46.13;94305.13;5062602;28;20054;-39
2022/01/24 10:58:54;;;;;;;15.55;5.20;;;;;;;-2.29;47.71;94302.28;5061452;28;20500;-38
2022/01/24 11:01:27;;;;;;;9.07;4.82;;;;;;;-3.10;46.14;94306.09;5059797;28;20037;-40
2022/01/24 11:04:20;;;;;;;8.20;4.43;;;;;;;-3.01;48.67;94310.78;5057099;28;20021;-39
2022/01/24 11:06:48;;;;;;;10.50;6.00;;;;;;;-2.81;50.10;94302.34;5051896;28;20537;-39
2022/01/24 11:09:23;;;;;;;5.83;4.53;;;;;;;-2.82;49.44;94317.06;5053882;28;20070;-38
2022/01/24 11:12:00;;;;;;;10.65;4.90;;;;;;;-3.08;46.19;94303.72;5055577;28;20027;-39
2022/01/24 11:14:27;;;;;;;8.52;5.65;;;;;;;-3.34;49.77;94317.78;5052586;28;20127;-39
2022/01/24 11:16:54;;;;;;;6.47;4.05;;;;;;;-2.97;48.32;94318.78;5047836;28;20116;-39
2022/01/24 11:19:30;;;;;;;5.22;3.67;;;;;;;-2.86;43.83;94305.66;5047816;28;20033;-39
2022/01/24 11:21:58;;;;;;;8.43;5.55;;;;;;;-2.59;46.68;94311.19;5047719;28;20119;-40
2022/01/24 11:24:39;;;;;;;16.23;8.45;;;;;;;-1.37;44.78;94306.69;5047372;28;20036;-39
2022/01/24 11:27:06;;;;;;;9.05;5.35;;;;;;;0.81;44.30;94317.50;5047705;28;20029;-39
2022/01/24 11:29:32;;;;;;;10.80;7.18;;;;;;;2.41;38.81;94312.03;5047682;28;20032;-40
2022/01/24 11:32:11;;;;;;;8.85;6.18;;;;;;;2.04;38.08;94316.44;5047106;28;20038;-39
2022/01/24 11:34:38;;;;;;;14.55;9.75;;;;;;;1.69;38.90;94310.22;5049850;28;20087;-39
2022/01/24 11:37:06;;;;;;;14.60;11.15;;;;;;;2.39;39.98;94311.75;5047307;28;20032;-40
2022/01/24 11:39:32;;;;;;;10.52;8.02;;;;;;;2.16;39.38;94312.66;5047682;28;20060;-40
2022/01/24 11:41:59;;;;;;;13.48;8.73;;;;;;;1.73;39.91;94319.69;5049020;28;20420;-41
2022/01/24 11:44:27;;;;;;;8.90;6.25;;;;;;;1.30;39.59;94312.28;5055241;28;20038;-40
2022/01/24 11:46:58;;;;;;;9.63;7.07;;;;;;;0.44;39.86;94325.91;5053565;28;20049;-40
2022/01/24 11:49:36;;;;;;;11.13;6.65;;;;;;;0.02;41.85;94316.34;5062196;28;20127;-38
2022/01/24 11:52:16;;;;;;;8.07;5.57;;;;;;;-0.62;45.16;94338.25;5055392;28;20032;-39
2022/01/24 11:57:19;;;;;;;8.75;6.15;;;;;;;-1.87;49.11;94337.75;5066978;28;20413;-39
2022/01/24 11:59:46;;;;;;;9.73;5.75;;;;;;;-2.06;48.80;94336.19;5066652;28;20093;-40
2022/01/24 12:02:17;;;;;;;11.07;7.55;;;;;;;-1.75;49.43;94326.81;5066545;28;20036;-44
2022/01/24 12:05:00;;;;;;;12.80;7.15;;;;;;;-1.60;47.58;94324.28;5065503;28;20024;-40
2022/01/24 12:07:31;;;;;;;7.72;5.35;;;;;;;-1.60;47.18;94322.31;5066967;28;20024;-42
2022/01/24 12:10:25;;;;;;;8.77;6.45;;;;;;;-1.34;45.42;94317.38;5067233;28;20035;-45
2022/01/24 12:12:54;;;;;;;8.07;5.43;;;;;;;-1.26;45.83;94329.44;5066636;28;20037;-42
2022/01/24 12:15:38;;;;;;;;;;;;;;;-1.22;43.25;94324.63;5066804;28;20840;-46
2022/01/24 12:18:06;;;;;;;7.40;5.50;;;;;;;-0.75;43.35;94326.81;5065741;28;19912;-43
2022/01/24 12:20:31;;;;;;;10.85;5.88;;;;;;;-0.87;42.79;94322.34;5065509;28;20037;-44
2022/01/24 12:23:19;;;;;;;8.05;5.18;;;;;;;-1.03;42.09;94328.06;5057123;28;20391;-39
2022/01/24 12:25:48;;;;;;;9.18;5.75;;;;;;;-1.06;43.47;94327.00;5048159;28;20064;-43
2022/01/24 12:28:18;;;;;;;9.93;6.97;;;;;;;-1.16;43.04;94324.75;5048887;28;20235;-45
2022/01/24 12:31:05;;;;;;;9.85;5.88;;;;;;;-1.06;44.06;94328.97;5067378;28;20116;-38
2022/01/24 12:33:41;;;;;;;14.25;6.82;;;;;;;-0.99;45.70;94324.00;5068565;28;20527;-38
2022/01/24 12:36:14;;;;;;;8.73;5.68;;;;;;;-1.24;45.77;94326.25;5069031;28;20494;-39
2022/01/24 12:38:43;;;;;;;12.68;7.10;;;;;;;-1.00;45.63;94333.34;5068805;28;20032;-41
2022/01/24 12:41:30;;;;;;;;;;;;;;;-0.88;43.24;94337.09;5068078;28;20035;-40
2022/01/24 12:46:29;;;;;;;9.73;5.93;;;;;;;-1.11;45.20;94343.13;5066222;28;20028;-39
2022/01/24 12:48:57;;;;;;;8.52;5.57;;;;;;;-0.77;44.47;94334.66;5066827;28;20041;-40
2022/01/24 12:51:24;;;;;;;11.98;6.07;;;;;;;-1.16;43.22;94336.34;5066524;28;20757;-44
2022/01/24 12:53:51;;;;;;;7.55;5.07;;;;;;;-1.18;43.46;94341.47;5066723;28;20036;-46
2022/01/24 12:56:18;;;;;;;7.85;4.78;;;;;;;-1.40;42.59;94332.72;5066315;28;20029;-44
2022/01/24 12:58:49;;;;;;;7.55;5.03;;;;;;;-1.39;45.03;94338.91;5066756;28;20051;-40
2022/01/24 13:01:28;;;;;;;9.55;5.85;;;;;;;-1.21;44.12;94333.50;5065070;28;20028;-41
2022/01/24 13:04:01;;;;;;;7.25;4.60;;;;;;;-1.11;44.18;94335.75;5075238;28;20034;-45
2022/01/24 13:06:29;;;;;;;5.78;4.22;;;;;;;-1.16;43.23;94339.06;5069399;28;20020;-42
2022/01/24 13:09:00;;;;;;;8.53;5.57;;;;;;;-1.31;44.52;94340.09;5069789;28;20416;-42
2022/01/24 13:11:28;;;;;;;11.20;6.72;;;;;;;-1.45;46.72;94343.41;5070319;28;20025;-41
2022/01/24 13:14:03;;;;;;;8.93;5.68;;;;;;;-1.68;47.07;94344.72;5070560;28;20154;-40
2022/01/24 13:22:28;;;;;;;;;;;;;;;-3.51;48.31;94354.97;5071047;28;20094;-40
2022/01/24 13:25:17;;;;;;;15.60;8.40;;;;;;;-3.65;48.44;94362.78;5079960;28;19908;-39
2022/01/24 13:27:51;;;;;;;10.57;5.57;;;;;;;-3.99;49.31;94363.50;5082841;28;20093;-39
2022/01/24 13:30:32;;;;;;;8.98;5.65;;;;;;;-4.06;51.40;94364.47;5090410;28;20390;-40
2022/01/24 13:33:05;;;;;;;11.07;6.18;;;;;;;-4.02;51.86;94375.88;5078676;28;20020;-40
2022/01/24 13:35:39;;;;;;;11.65;5.07;;;;;;;-3.91;50.47;94368.22;5069339;28;20060;-39
2022/01/24 13:38:05;;;;;;;8.90;4.95;;;;;;;-3.85;51.16;94379.97;5083680;28;20516;-39
2022/01/24 13:40:53;;;;;;;11.73;7.25;;;;;;;-4.23;51.53;94384.63;5090229;28;20036;-40
2022/01/24 13:43:40;;;;;;;6.68;4.57;;;;;;;-4.16;52.14;94386.38;5090158;28;20730;-41